Time;durP1;ratioP1;P1;durP2;ratioP2;P2;SDS_P1;SDS_P2;PMS_P1;PMS_P2;Temp;Humidity;BMP_temperature;BMP_pressure;BME280_temperature;BME280_humidity;BME280_pressure;Samples;Min_cycle;Max_cycle;Signal;HPM_P1;HPM_P2
2023/07/01 00:00:07;;;;;;;1.13;1.02;;;19.30;99.90;;;;;;5089390;28;20219;-66
2023/07/01 00:02:36;;;;;;;1.35;1.00;;;19.40;99.90;;;;;;5091384;28;20288;-67
2023/07/01 00:05:04;;;;;;;0.80;0.80;;;19.40;99.90;;;;;;5091967;28;20192;-65
2023/07/01 00:07:31;;;;;;;0.85;0.85;;;19.40;99.90;;;;;;5090403;28;20204;-66
2023/07/01 00:10:00;;;;;;;1.65;1.00;;;19.40;99.90;;;;;;5091364;28;20220;-66
2023/07/01 00:12:27;;;;;;;1.77;1.20;;;19.40;99.90;;;;;;5091865;28;20280;-66
2023/07/01 00:14:54;;;;;;;3.65;1.27;;;19.40;99.90;;;;;;5073268;28;20240;-66
2023/07/01 00:17:21;;;;;;;2.05;1.52;;;19.50;99.90;;;;;;5091342;28;20254;-66
2023/07/01 00:19:48;;;;;;;1.70;1.30;;;19.50;99.90;;;;;;5087756;28;20184;-66
2023/07/01 00:22:15;;;;;;;1.45;1.08;;;19.50;99.90;;;;;;5090837;28;20257;-66
2023/07/01 00:24:42;;;;;;;1.10;1.00;;;19.50;99.90;;;;;;5089668;28;20196;-66
2023/07/01 00:27:10;;;;;;;0.98;0.90;;;19.40;99.90;;;;;;5091504;28;20204;-66
2023/07/01 00:29:37;;;;;;;1.33;1.00;;;19.40;99.90;;;;;;5072903;28;20602;-66
2023/07/01 00:32:06;;;;;;;2.63;1.08;;;19.40;99.90;;;;;;5091696;28;20293;-67
2023/07/01 00:34:36;;;;;;;3.20;1.30;;;19.30;99.90;;;;;;5069044;28;20573;-66
2023/07/01 00:37:05;;;;;;;1.73;1.20;;;19.40;99.90;;;;;;5088346;28;20270;-67
2023/07/01 00:39:32;;;;;;;1.88;1.00;;;19.30;99.90;;;;;;5086523;28;20227;-66
2023/07/01 00:42:01;;;;;;;1.52;1.20;;;19.30;99.90;;;;;;5072684;28;20204;-66
2023/07/01 00:44:32;;;;;;;2.53;1.40;;;19.30;99.90;;;;;;5086407;28;20184;-67
2023/07/01 00:47:00;;;;;;;1.50;1.30;;;19.30;99.90;;;;;;5089668;28;20814;-67
2023/07/01 00:49:28;;;;;;;0.80;0.80;;;19.30;99.90;;;;;;5072351;28;20240;-67
2023/07/01 00:51:56;;;;;;;3.17;1.10;;;19.30;99.90;;;;;;5091324;28;20196;-67
2023/07/01 00:54:23;;;;;;;0.90;0.90;;;19.30;99.90;;;;;;5089506;28;20220;-67
2023/07/01 00:56:50;;;;;;;2.33;1.20;;;19.30;99.90;;;;;;5091654;28;20204;-68
2023/07/01 00:59:17;;;;;;;2.45;1.25;;;19.30;99.90;;;;;;5088729;28;20212;-67
2023/07/01 01:01:51;;;;;;;2.40;1.13;;;19.30;99.90;;;;;;5073272;28;20278;-67
2023/07/01 01:04:29;;;;;;;1.25;1.10;;;19.40;99.90;;;;;;5086046;28;20204;-68
2023/07/01 01:07:02;;;;;;;1.30;1.20;;;19.40;99.90;;;;;;5065163;28;20208;-68
2023/07/01 01:09:36;;;;;;;1.30;1.20;;;19.40;99.90;;;;;;5071699;28;20232;-67
2023/07/01 01:12:09;;;;;;;2.55;1.20;;;19.40;99.90;;;;;;5090937;28;20269;-67
2023/07/01 01:14:38;;;;;;;3.63;1.20;;;19.30;99.90;;;;;;5088254;28;20213;-67
2023/07/01 01:17:09;;;;;;;1.50;1.00;;;19.40;99.90;;;;;;5089909;28;20192;-67
2023/07/01 01:19:40;;;;;;;1.85;1.45;;;19.30;99.90;;;;;;5062691;28;20263;-67
2023/07/01 01:22:15;;;;;;;1.27;1.17;;;19.30;99.90;;;;;;5072783;28;20204;-67
2023/07/01 01:24:45;;;;;;;2.05;1.13;;;19.30;99.90;;;;;;5090475;28;20233;-67
2023/07/01 01:27:19;;;;;;;1.02;0.90;;;19.30;99.90;;;;;;5090937;28;20192;-67
2023/07/01 01:29:50;;;;;;;1.27;1.05;;;19.30;99.90;;;;;;5090116;28;20201;-66
2023/07/01 01:32:18;;;;;;;1.05;1.00;;;19.30;99.90;;;;;;5090018;28;20200;-68
2023/07/01 01:34:48;;;;;;;2.20;1.10;;;19.30;99.90;;;;;;5081319;28;20213;-67
2023/07/01 01:37:20;;;;;;;2.70;1.20;;;19.30;99.90;;;;;;5089978;28;20301;-67
2023/07/01 01:39:53;;;;;;;1.42;1.13;;;19.30;99.90;;;;;;5089787;28;20188;-66
2023/07/01 01:42:26;;;;;;;1.85;1.00;;;19.30;99.90;;;;;;5090041;28;20758;-67
2023/07/01 01:44:56;;;;;;;1.67;0.80;;;19.20;99.90;;;;;;5079243;28;20196;-68
2023/07/01 01:47:27;;;;;;;1.17;1.08;;;19.20;99.90;;;;;;5071403;28;20205;-67
2023/07/01 01:49:56;;;;;;;1.38;1.05;;;19.20;99.90;;;;;;5078903;28;20204;-67
2023/07/01 01:52:24;;;;;;;1.42;0.98;;;19.20;99.90;;;;;;5085504;28;20228;-68
2023/07/01 01:54:54;;;;;;;0.80;0.77;;;19.20;99.90;;;;;;5089119;28;20221;-68
2023/07/01 01:57:23;;;;;;;0.88;0.88;;;19.10;99.90;;;;;;5071948;28;20563;-68
2023/07/01 01:59:50;;;;;;;0.73;0.73;;;19.10;99.90;;;;;;5089892;28;20200;-68
2023/07/01 02:02:19;;;;;;;0.80;0.80;;;19.00;99.90;;;;;;5089415;28;20587;-67
2023/07/01 02:04:46;;;;;;;2.92;1.30;;;19.00;99.90;;;;;;5081440;28;20592;-67
2023/07/01 02:07:13;;;;;;;2.08;1.27;;;19.00;99.90;;;;;;5086886;28;20204;-68
2023/07/01 02:09:40;;;;;;;3.67;1.40;;;19.10;99.90;;;;;;5070727;28;20224;-67
2023/07/01 02:12:07;;;;;;;1.35;1.20;;;19.10;99.90;;;;;;5089706;28;20674;-67
2023/07/01 02:14:35;;;;;;;3.10;1.20;;;19.00;99.90;;;;;;5089635;28;20208;-67
2023/07/01 02:17:02;;;;;;;2.88;1.27;;;19.10;99.90;;;;;;5071226;28;20295;-67
2023/07/01 02:19:30;;;;;;;3.20;1.45;;;19.10;99.90;;;;;;5069762;28;20208;-67
2023/07/01 02:21:57;;;;;;;1.40;1.10;;;19.10;99.90;;;;;;5089583;28;20246;-67
2023/07/01 02:24:24;;;;;;;1.48;1.02;;;19.10;99.90;;;;;;5088468;28;20583;-67
2023/07/01 02:26:51;;;;;;;4.70;1.60;;;19.00;99.90;;;;;;5091403;28;20204;-67
2023/07/01 02:29:19;;;;;;;2.17;1.45;;;19.10;99.90;;;;;;5088522;28;20192;-67
2023/07/01 02:31:46;;;;;;;1.70;1.10;;;19.00;99.90;;;;;;5094669;28;20571;-67
2023/07/01 02:34:14;;;;;;;0.88;0.88;;;19.00;99.90;;;;;;5073755;28;20220;-67
2023/07/01 02:36:43;;;;;;;1.25;1.15;;;19.00;99.90;;;;;;5089986;28;20548;-67
2023/07/01 02:39:10;;;;;;;2.35;0.90;;;19.00;99.90;;;;;;5093065;28;20271;-67
2023/07/01 02:41:37;;;;;;;1.63;1.10;;;19.00;99.90;;;;;;5093501;28;20393;-67
2023/07/01 02:44:04;;;;;;;1.00;0.90;;;19.00;99.90;;;;;;5093392;28;20225;-67
2023/07/01 02:46:31;;;;;;;2.33;1.10;;;19.00;99.90;;;;;;5076540;28;20204;-67
2023/07/01 02:48:59;;;;;;;2.55;1.20;;;19.00;99.90;;;;;;5087277;28;20648;-67
2023/07/01 02:51:26;;;;;;;1.70;1.27;;;19.00;99.90;;;;;;5093316;28;20208;-67
2023/07/01 02:53:54;;;;;;;2.17;1.25;;;19.00;99.90;;;;;;5092188;28;20200;-67
2023/07/01 02:56:22;;;;;;;1.30;1.10;;;19.00;99.90;;;;;;5075162;28;20232;-68
2023/07/01 02:58:49;;;;;;;1.40;1.20;;;19.00;99.90;;;;;;5074153;28;20274;-68
2023/07/01 03:01:16;;;;;;;3.33;1.23;;;19.00;99.90;;;;;;5075136;28;20205;-67
2023/07/01 03:03:44;;;;;;;1.15;1.05;;;19.00;99.90;;;;;;5074265;28;20213;-67
2023/07/01 03:06:11;;;;;;;2.28;1.38;;;19.00;99.90;;;;;;5089051;28;20654;-67
2023/07/01 03:08:39;;;;;;;1.33;1.23;;;19.00;99.90;;;;;;5070719;28;20618;-68
2023/07/01 03:11:08;;;;;;;1.55;1.00;;;19.00;99.90;;;;;;5092729;28;20242;-68
2023/07/01 03:13:37;;;;;;;0.70;0.70;;;19.00;99.90;;;;;;5074750;28;20204;-68
2023/07/01 03:16:06;;;;;;;1.25;0.90;;;19.00;99.90;;;;;;5092918;28;20217;-68
2023/07/01 03:18:33;;;;;;;0.90;0.90;;;19.00;99.90;;;;;;5089509;28;20208;-67
2023/07/01 03:21:00;;;;;;;0.82;0.80;;;18.90;99.90;;;;;;5093437;28;20193;-68
2023/07/01 03:23:28;;;;;;;1.10;1.00;;;18.90;99.90;;;;;;5073380;28;20315;-67
2023/07/01 03:25:55;;;;;;;0.90;0.90;;;18.90;99.90;;;;;;5092712;28;20184;-67
2023/07/01 03:28:23;;;;;;;0.80;0.80;;;18.90;99.90;;;;;;5073235;28;20415;-67
2023/07/01 03:30:51;;;;;;;2.00;1.20;;;18.90;99.90;;;;;;5073830;28;20201;-68
2023/07/01 03:33:20;;;;;;;0.80;0.80;;;18.90;99.90;;;;;;5091327;28;20654;-67
2023/07/01 03:35:48;;;;;;;1.52;1.23;;;19.00;99.90;;;;;;5092593;28;20235;-68
2023/07/01 03:38:15;;;;;;;3.20;1.50;;;19.00;99.90;;;;;;5090909;28;20200;-67
2023/07/01 03:40:42;;;;;;;1.77;1.38;;;19.00;99.90;;;;;;5092190;28;20230;-68
2023/07/01 03:43:09;;;;;;;1.20;1.08;;;19.00;99.90;;;;;;5090456;28;20193;-67
2023/07/01 03:45:37;;;;;;;1.80;0.90;;;19.00;99.90;;;;;;5074321;28;20308;-67
2023/07/01 03:48:05;;;;;;;1.50;1.40;;;18.90;99.90;;;;;;5073650;28;20192;-66
2023/07/01 03:50:32;;;;;;;2.10;1.40;;;18.90;99.90;;;;;;5069308;28;20636;-66
2023/07/01 03:52:59;;;;;;;2.85;1.20;;;19.00;99.90;;;;;;5091531;28;20220;-67
2023/07/01 03:55:26;;;;;;;1.42;1.00;;;19.00;99.90;;;;;;5091919;28;20289;-66
2023/07/01 03:57:53;;;;;;;0.98;0.98;;;19.00;99.90;;;;;;5092166;28;20224;-66
2023/07/01 04:00:21;;;;;;;0.93;0.82;;;19.00;99.90;;;;;;5088855;28;20548;-66
2023/07/01 04:02:51;;;;;;;0.88;0.88;;;19.00;99.90;;;;;;5073269;28;20211;-66
2023/07/01 04:05:19;;;;;;;1.08;1.00;;;19.00;99.90;;;;;;5091944;28;20720;-66
2023/07/01 04:07:48;;;;;;;1.80;1.00;;;19.00;99.90;;;;;;5091083;28;20797;-66
2023/07/01 04:10:16;;;;;;;3.67;1.40;;;19.00;99.90;;;;;;5073009;28;20247;-65
2023/07/01 04:12:43;;;;;;;2.30;1.00;;;19.00;99.90;;;;;;5091676;28;20299;-66
2023/07/01 04:15:11;;;;;;;0.70;0.70;;;19.10;99.90;;;;;;5091525;28;20257;-67
2023/07/01 04:17:40;;;;;;;2.40;0.90;;;19.10;99.90;;;;;;5091390;28;20204;-66
2023/07/01 04:20:10;;;;;;;0.80;0.80;;;19.10;99.90;;;;;;5091060;28;20690;-67
2023/07/01 04:22:38;;;;;;;5.18;1.05;;;19.10;99.90;;;;;;5072539;28;20219;-67
2023/07/01 04:25:06;;;;;;;0.85;0.85;;;19.20;99.90;;;;;;5091098;28;20184;-67
2023/07/01 04:27:33;;;;;;;2.72;0.90;;;19.20;99.90;;;;;;5091162;28;20369;-67
2023/07/01 04:30:00;;;;;;;1.23;1.13;;;19.20;99.90;;;;;;5072175;28;20204;-67
2023/07/01 04:32:28;;;;;;;1.23;1.00;;;19.20;99.90;;;;;;5090520;28;20216;-67
2023/07/01 04:34:55;;;;;;;1.48;1.00;;;19.20;99.90;;;;;;5066116;28;20217;-65
2023/07/01 04:37:24;;;;;;;0.77;0.77;;;19.30;99.90;;;;;;5091361;28;20205;-66
2023/07/01 04:39:51;;;;;;;1.73;0.90;;;19.30;99.90;;;;;;5090502;28;20201;-66
2023/07/01 04:42:19;;;;;;;0.80;0.80;;;19.30;99.90;;;;;;5091326;28;20193;-66
2023/07/01 04:44:53;;;;;;;1.20;1.10;;;19.30;99.90;;;;;;5090463;28;20227;-67
2023/07/01 04:47:21;;;;;;;0.93;0.80;;;19.30;99.90;;;;;;5090207;28;20199;-66
2023/07/01 04:49:48;;;;;;;1.23;1.02;;;19.40;99.90;;;;;;5079480;28;20219;-66
2023/07/01 04:52:16;;;;;;;0.80;0.80;;;19.40;99.90;;;;;;5091000;28;20742;-66
2023/07/01 04:54:44;;;;;;;2.55;1.10;;;19.40;99.90;;;;;;5071815;28;20212;-67
2023/07/01 04:57:11;;;;;;;1.38;1.00;;;19.40;99.90;;;;;;5091380;28;20188;-67
2023/07/01 04:59:38;;;;;;;1.23;1.13;;;19.40;99.90;;;;;;5089102;28;20212;-66
2023/07/01 05:02:05;;;;;;;0.82;0.80;;;19.40;99.90;;;;;;5090893;28;20250;-66
2023/07/01 05:04:33;;;;;;;0.90;0.90;;;19.50;99.90;;;;;;5091090;28;20246;-67
2023/07/01 05:07:00;;;;;;;1.75;1.00;;;19.60;99.90;;;;;;5083808;28;20581;-67
2023/07/01 05:09:27;;;;;;;1.10;0.98;;;19.60;99.90;;;;;;5090284;28;20267;-67
2023/07/01 05:11:56;;;;;;;5.85;1.00;;;19.60;99.90;;;;;;5090980;28;20668;-68
2023/07/01 05:14:23;;;;;;;1.52;1.10;;;19.70;99.90;;;;;;5072174;28;20253;-66
2023/07/01 05:16:50;;;;;;;1.00;0.90;;;19.70;99.90;;;;;;5090747;28;20240;-66
2023/07/01 05:19:17;;;;;;;1.23;0.60;;;19.80;99.90;;;;;;5071269;28;20215;-66
2023/07/01 05:21:50;;;;;;;1.40;0.88;;;19.80;99.90;;;;;;5072221;28;20683;-66
2023/07/01 05:24:17;;;;;;;0.70;0.70;;;19.80;99.90;;;;;;5070724;28;20727;-67
2023/07/01 05:26:46;;;;;;;1.48;0.77;;;19.90;99.90;;;;;;5090466;28;20654;-67
2023/07/01 05:29:15;;;;;;;0.93;0.70;;;19.90;99.90;;;;;;5089990;28;20540;-67
2023/07/01 05:31:42;;;;;;;2.50;0.70;;;19.90;99.90;;;;;;5064079;28;20204;-67
2023/07/01 05:34:09;;;;;;;2.00;0.80;;;20.00;99.90;;;;;;5089266;28;20741;-67
2023/07/01 05:36:37;;;;;;;0.80;0.80;;;20.00;99.90;;;;;;5084555;28;20204;-67
2023/07/01 05:39:04;;;;;;;0.90;0.60;;;20.00;99.90;;;;;;5072235;28;20715;-67
2023/07/01 05:41:32;;;;;;;1.25;0.70;;;20.00;99.90;;;;;;5072499;28;20249;-67
2023/07/01 05:43:59;;;;;;;0.93;0.90;;;20.10;99.90;;;;;;5089674;28;20274;-67
2023/07/01 05:46:27;;;;;;;0.70;0.70;;;20.10;99.90;;;;;;5071797;28;20193;-67
2023/07/01 05:48:57;;;;;;;2.47;1.20;;;20.10;99.90;;;;;;5071862;28;20748;-68
2023/07/01 05:51:24;;;;;;;2.55;1.10;;;20.20;99.90;;;;;;5090106;28;20261;-68
2023/07/01 05:53:51;;;;;;;1.77;0.93;;;20.20;99.90;;;;;;5069862;28;20250;-68
2023/07/01 05:56:18;;;;;;;0.85;0.85;;;20.20;99.90;;;;;;5071492;28;20283;-68
2023/07/01 05:58:45;;;;;;;0.80;0.80;;;20.30;99.90;;;;;;5087006;28;20189;-66
2023/07/01 06:01:12;;;;;;;0.77;0.75;;;20.30;99.90;;;;;;5089135;28;20203;-66
2023/07/01 06:03:40;;;;;;;0.75;0.68;;;20.40;99.90;;;;;;5070911;28;20204;-66
2023/07/01 06:06:07;;;;;;;0.93;0.70;;;20.40;99.90;;;;;;5087038;28;20197;-66
2023/07/01 06:08:35;;;;;;;0.80;0.80;;;20.50;99.90;;;;;;5087813;28;20715;-67
2023/07/01 06:11:02;;;;;;;0.60;0.60;;;20.50;99.90;;;;;;5071235;28;20442;-66
2023/07/01 06:13:29;;;;;;;0.70;0.70;;;20.60;99.90;;;;;;5089269;28;20195;-67
2023/07/01 06:15:56;;;;;;;0.90;0.90;;;20.60;99.90;;;;;;5089381;28;20208;-67
2023/07/01 06:18:23;;;;;;;0.63;0.63;;;20.60;99.90;;;;;;5088291;28;20204;-67
2023/07/01 06:20:51;;;;;;;1.25;0.75;;;20.60;99.90;;;;;;5072268;28;20200;-67
2023/07/01 06:23:18;;;;;;;0.82;0.77;;;20.60;99.90;;;;;;5088793;28;20192;-67
2023/07/01 06:25:45;;;;;;;1.48;0.95;;;20.60;99.90;;;;;;5071115;28;20197;-66
2023/07/01 06:28:12;;;;;;;2.13;0.90;;;20.60;99.90;;;;;;5070674;28;20269;-67
2023/07/01 06:30:40;;;;;;;0.98;0.98;;;20.70;99.90;;;;;;5071540;28;20197;-67
2023/07/01 06:33:08;;;;;;;3.13;1.10;;;20.70;99.90;;;;;;5088545;28;20249;-68
2023/07/01 06:35:35;;;;;;;0.90;0.90;;;20.80;99.90;;;;;;5083960;28;20205;-66
2023/07/01 06:38:04;;;;;;;0.70;0.70;;;20.80;99.90;;;;;;5088454;28;20193;-67
2023/07/01 06:40:31;;;;;;;1.52;0.70;;;20.90;99.90;;;;;;5089297;28;20269;-66
2023/07/01 06:42:58;;;;;;;0.85;0.85;;;20.90;99.90;;;;;;5070640;28;20192;-67
2023/07/01 06:45:25;;;;;;;0.70;0.70;;;20.90;99.90;;;;;;5089475;28;20220;-67
2023/07/01 06:47:52;;;;;;;0.80;0.80;;;20.90;99.90;;;;;;5088046;28;20193;-68
2023/07/01 06:50:19;;;;;;;1.98;0.88;;;21.00;99.90;;;;;;5089209;28;20193;-67
2023/07/01 06:52:46;;;;;;;0.70;0.70;;;21.00;99.90;;;;;;5088481;28;20671;-67
2023/07/01 06:55:14;;;;;;;0.60;0.60;;;21.10;99.90;;;;;;5089406;28;20203;-66
2023/07/01 06:57:42;;;;;;;1.65;0.95;;;21.10;99.90;;;;;;5089201;28;20266;-66
2023/07/01 07:00:11;;;;;;;1.55;0.95;;;21.20;99.90;;;;;;5087753;28;20204;-66
2023/07/01 07:02:38;;;;;;;0.93;0.73;;;21.20;99.80;;;;;;5089256;28;20185;-66
2023/07/01 07:05:08;;;;;;;1.77;0.80;;;21.20;99.50;;;;;;5071223;28;20204;-67
2023/07/01 07:07:35;;;;;;;0.95;0.93;;;21.20;99.00;;;;;;5081245;28;20250;-67
2023/07/01 07:10:03;;;;;;;2.25;0.70;;;21.20;98.70;;;;;;5088809;28;20307;-67
2023/07/01 07:12:31;;;;;;;0.80;0.80;;;21.30;98.70;;;;;;5086680;28;20277;-67
2023/07/01 07:14:58;;;;;;;0.93;0.77;;;21.30;98.60;;;;;;5092552;28;20196;-67
2023/07/01 07:17:25;;;;;;;2.28;1.00;;;21.40;98.70;;;;;;5092602;28;20262;-67
2023/07/01 07:19:52;;;;;;;0.75;0.70;;;21.40;98.60;;;;;;5090609;28;20201;-67
2023/07/01 07:22:19;;;;;;;1.67;1.00;;;21.50;98.60;;;;;;5092646;28;20283;-67
2023/07/01 07:24:47;;;;;;;0.60;0.60;;;21.50;98.40;;;;;;5073102;28;20664;-66
2023/07/01 07:27:14;;;;;;;1.60;0.70;;;21.60;98.20;;;;;;5092179;28;20291;-66
2023/07/01 07:29:43;;;;;;;0.65;0.60;;;21.60;97.80;;;;;;5092085;28;20208;-67
2023/07/01 07:32:10;;;;;;;1.05;0.65;;;21.60;97.20;;;;;;5092049;28;20563;-66
2023/07/01 07:34:38;;;;;;;0.82;0.82;;;21.60;97.00;;;;;;5088627;28;20747;-67
2023/07/01 07:37:07;;;;;;;1.42;0.90;;;21.70;96.70;;;;;;5090965;28;20219;-67
2023/07/01 07:39:34;;;;;;;0.70;0.70;;;21.70;96.30;;;;;;5073067;28;20201;-67
2023/07/01 07:42:02;;;;;;;0.65;0.65;;;21.70;96.20;;;;;;5092039;28;20204;-67
2023/07/01 07:44:29;;;;;;;1.23;0.90;;;21.80;95.20;;;;;;5073157;28;20261;-67
2023/07/01 07:46:57;;;;;;;1.02;0.90;;;21.80;94.60;;;;;;5091116;28;20242;-67
2023/07/01 07:49:24;;;;;;;0.70;0.70;;;21.80;94.20;;;;;;5090359;28;20192;-67
2023/07/01 07:51:51;;;;;;;1.00;0.80;;;21.90;94.20;;;;;;5092398;28;20565;-67
2023/07/01 07:54:18;;;;;;;0.73;0.73;;;21.90;94.10;;;;;;5090454;28;20192;-67
2023/07/01 07:56:45;;;;;;;1.02;0.70;;;22.00;94.10;;;;;;5091880;28;20618;-67
2023/07/01 07:59:12;;;;;;;0.70;0.70;;;22.00;94.10;;;;;;5089823;28;20732;-67
2023/07/01 08:01:39;;;;;;;1.10;0.70;;;22.10;93.90;;;;;;5091386;28;20413;-66
2023/07/01 08:04:08;;;;;;;1.73;0.77;;;22.20;93.90;;;;;;5090647;28;20196;-67
2023/07/01 08:06:35;;;;;;;0.82;0.55;;;22.30;93.80;;;;;;5088960;28;20200;-67
2023/07/01 08:09:04;;;;;;;0.57;0.57;;;22.40;93.90;;;;;;5090779;28;20220;-67
2023/07/01 08:11:31;;;;;;;2.30;0.73;;;22.40;93.70;;;;;;5085306;28;20556;-67
2023/07/01 08:13:58;;;;;;;1.50;0.93;;;22.50;93.30;;;;;;5091495;28;20205;-67
2023/07/01 08:16:25;;;;;;;1.63;1.15;;;22.50;91.30;;;;;;5091632;28;20639;-68
2023/07/01 08:18:52;;;;;;;0.90;0.90;;;22.50;91.10;;;;;;5089968;28;20675;-68
2023/07/01 08:21:20;;;;;;;1.05;0.88;;;22.50;91.20;;;;;;5091817;28;20455;-67
2023/07/01 08:23:47;;;;;;;0.90;0.90;;;22.50;90.90;;;;;;5071697;28;20553;-67
2023/07/01 08:26:14;;;;;;;1.00;1.00;;;22.60;91.00;;;;;;5091281;28;20224;-67
2023/07/01 08:28:42;;;;;;;1.70;1.60;;;22.60;91.00;;;;;;5091419;28;20242;-68
2023/07/01 08:31:09;;;;;;;1.40;1.30;;;22.70;90.90;;;;;;5091360;28;20289;-68
2023/07/01 08:33:36;;;;;;;1.15;1.13;;;22.70;90.90;;;;;;5090225;28;20223;-68
2023/07/01 08:36:04;;;;;;;0.80;0.80;;;22.80;90.90;;;;;;5085670;28;20185;-68
2023/07/01 08:38:32;;;;;;;0.90;0.90;;;22.90;90.80;;;;;;5091023;28;20215;-67
2023/07/01 08:41:04;;;;;;;1.75;0.70;;;22.90;90.70;;;;;;5090959;28;20205;-68
2023/07/01 08:43:33;;;;;;;0.77;0.77;;;23.00;90.30;;;;;;5090331;28;20733;-67
2023/07/01 08:46:04;;;;;;;1.80;1.13;;;23.10;90.30;;;;;;5090008;28;20192;-68
2023/07/01 08:48:32;;;;;;;2.25;0.90;;;23.10;89.50;;;;;;5090332;28;20197;-67
2023/07/01 08:51:05;;;;;;;0.70;0.70;;;23.10;87.70;;;;;;5073137;28;20197;-67
2023/07/01 08:53:34;;;;;;;1.45;1.00;;;23.20;87.50;;;;;;5089991;28;20196;-67
2023/07/01 08:56:01;;;;;;;0.50;0.50;;;23.20;86.60;;;;;;5091147;28;20216;-68
2023/07/01 08:58:30;;;;;;;0.93;0.70;;;23.30;86.50;;;;;;5084188;28;20224;-68
2023/07/01 09:00:57;;;;;;;0.60;0.60;;;23.30;85.60;;;;;;5089556;28;20193;-68
2023/07/01 09:03:24;;;;;;;0.70;0.70;;;23.40;84.20;;;;;;5089616;28;20211;-68
2023/07/01 09:05:51;;;;;;;1.30;0.70;;;23.40;84.00;;;;;;5089334;28;20193;-68
2023/07/01 09:08:19;;;;;;;0.70;0.70;;;23.50;83.50;;;;;;5083146;28;20286;-67
2023/07/01 09:10:47;;;;;;;0.68;0.68;;;23.60;83.50;;;;;;5090755;28;20188;-67
2023/07/01 09:13:15;;;;;;;0.60;0.60;;;23.60;83.30;;;;;;5090013;28;20258;-68
2023/07/01 09:15:46;;;;;;;0.75;0.75;;;23.60;82.80;;;;;;5090897;28;20659;-67
2023/07/01 09:18:23;;;;;;;0.52;0.52;;;23.60;83.00;;;;;;5082681;28;20635;-68
2023/07/01 09:20:50;;;;;;;0.60;0.60;;;23.70;82.70;;;;;;5091070;28;20660;-67
2023/07/01 09:23:28;;;;;;;0.60;0.60;;;23.80;82.00;;;;;;5088238;28;20204;-67
2023/07/01 09:26:13;;;;;;;0.50;0.50;;;23.80;81.50;;;;;;5088961;28;20199;-66
2023/07/01 09:28:41;;;;;;;1.27;1.00;;;23.90;81.80;;;;;;5089026;28;20188;-67
2023/07/01 09:31:10;;;;;;;0.60;0.60;;;23.90;81.30;;;;;;5090159;28;20232;-67
2023/07/01 09:33:38;;;;;;;0.70;0.70;;;24.00;81.80;;;;;;5083807;28;20197;-66
2023/07/01 09:36:06;;;;;;;0.60;0.60;;;24.00;81.80;;;;;;5081275;28;20192;-67
2023/07/01 09:38:34;;;;;;;1.20;1.08;;;24.10;81.30;;;;;;5089881;28;20200;-67
2023/07/01 09:41:14;;;;;;;1.88;1.20;;;24.10;79.20;;;;;;5089802;28;20701;-67
2023/07/01 09:43:41;;;;;;;1.00;0.80;;;24.20;77.50;;;;;;5089781;28;20238;-67
2023/07/01 09:46:09;;;;;;;1.10;1.00;;;24.20;76.90;;;;;;5090199;28;20197;-68
2023/07/01 09:48:36;;;;;;;0.88;0.88;;;24.20;75.90;;;;;;5089318;28;20594;-67
2023/07/01 09:51:05;;;;;;;0.80;0.80;;;24.30;75.10;;;;;;5084902;28;20192;-67
2023/07/01 09:53:34;;;;;;;0.90;0.90;;;24.30;75.10;;;;;;5089099;28;20709;-68
2023/07/01 09:56:03;;;;;;;0.90;0.90;;;24.40;75.50;;;;;;5089801;28;20192;-68
2023/07/01 09:58:33;;;;;;;2.22;1.10;;;24.40;75.70;;;;;;5087331;28;20216;-67
2023/07/01 10:01:00;;;;;;;1.20;0.80;;;24.40;75.60;;;;;;5088487;28;20218;-67
2023/07/01 10:03:28;;;;;;;1.48;0.73;;;24.50;76.00;;;;;;5088844;28;20201;-68
2023/07/01 10:05:55;;;;;;;0.60;0.60;;;24.50;76.40;;;;;;5090002;28;20219;-68
2023/07/01 10:08:23;;;;;;;0.80;0.80;;;24.50;76.30;;;;;;5089237;28;20705;-67
2023/07/01 10:11:01;;;;;;;1.20;1.10;;;24.50;75.70;;;;;;5089808;28;20181;-67
2023/07/01 10:13:32;;;;;;;1.17;1.05;;;24.50;76.00;;;;;;5088610;28;20188;-68
2023/07/01 10:16:02;;;;;;;2.35;1.20;;;24.60;75.20;;;;;;5083268;28;20185;-68
2023/07/01 10:18:31;;;;;;;0.90;0.90;;;24.50;75.10;;;;;;5088792;28;20240;-67
2023/07/01 10:21:30;;;;;;;2.78;1.38;;;24.50;75.00;;;;;;5090540;28;20288;-68
2023/07/01 10:23:59;;;;;;;1.58;1.00;;;24.40;74.80;;;;;;5089538;28;20688;-66
2023/07/01 10:26:46;;;;;;;3.03;1.10;;;24.30;74.60;;;;;;5089602;28;20202;-67
2023/07/01 10:29:40;;;;;;;1.27;1.17;;;24.30;74.40;;;;;;5089736;28;20218;-67
2023/07/01 10:32:30;;;;;;;0.60;0.60;;;24.40;74.30;;;;;;5084917;28;20206;-67
2023/07/01 10:35:14;;;;;;;1.00;1.00;;;24.40;74.50;;;;;;5066530;28;20564;-68
2023/07/01 10:37:43;;;;;;;0.80;0.80;;;24.40;74.20;;;;;;5084322;28;20216;-66
2023/07/01 10:40:42;;;;;;;1.33;1.02;;;24.40;74.00;;;;;;5071426;28;20628;-67
2023/07/01 10:43:32;;;;;;;1.38;1.13;;;24.20;74.40;;;;;;5083230;28;20207;-67
2023/07/01 10:46:12;;;;;;;1.17;1.17;;;24.20;74.50;;;;;;5081479;28;20212;-66
2023/07/01 10:48:40;;;;;;;1.05;1.05;;;24.10;74.00;;;;;;5079708;28;20676;-67
2023/07/01 10:51:08;;;;;;;1.10;1.10;;;24.10;74.30;;;;;;5084447;28;20650;-67
2023/07/01 10:54:00;;;;;;;1.00;1.00;;;24.00;73.40;;;;;;5090220;28;20949;-67
2023/07/01 10:56:30;;;;;;;3.13;1.40;;;24.00;73.90;;;;;;5089494;28;20222;-67
2023/07/01 10:59:19;;;;;;;2.05;1.45;;;24.00;73.80;;;;;;5080029;28;20235;-67
2023/07/01 11:01:48;;;;;;;1.35;1.17;;;24.10;73.00;;;;;;5067785;28;20261;-67
2023/07/01 11:04:16;;;;;;;1.92;1.27;;;24.20;73.00;;;;;;5085476;28;20206;-67
2023/07/01 11:06:50;;;;;;;1.88;1.27;;;24.30;72.80;;;;;;5088736;28;20608;-67
2023/07/01 11:09:28;;;;;;;1.60;1.50;;;24.40;72.90;;;;;;5083869;28;20694;-67
2023/07/01 11:11:55;;;;;;;2.17;1.40;;;24.60;73.20;;;;;;5088027;28;20662;-67
2023/07/01 11:14:30;;;;;;;1.05;1.05;;;24.70;73.00;;;;;;5084339;28;20193;-68
2023/07/01 11:17:07;;;;;;;1.58;1.30;;;24.70;72.50;;;;;;5087761;28;20586;-68
2023/07/01 11:19:35;;;;;;;1.10;1.00;;;24.70;71.50;;;;;;5083223;28;20672;-67
2023/07/01 11:22:02;;;;;;;1.73;1.15;;;24.70;71.70;;;;;;5090153;28;20222;-66
2023/07/01 11:24:30;;;;;;;0.95;0.95;;;24.70;71.90;;;;;;5090198;28;20193;-67
2023/07/01 11:27:05;;;;;;;1.67;1.00;;;24.70;72.10;;;;;;5088357;28;20224;-68
2023/07/01 11:29:32;;;;;;;2.05;1.00;;;24.80;72.70;;;;;;5086899;28;20640;-68
2023/07/01 11:32:00;;;;;;;1.30;1.20;;;24.80;72.60;;;;;;5092165;28;20663;-68
2023/07/01 11:34:30;;;;;;;1.52;1.33;;;24.90;72.50;;;;;;5085999;28;20193;-67
2023/07/01 11:36:58;;;;;;;1.33;1.05;;;25.00;71.20;;;;;;5086024;28;20189;-68
2023/07/01 11:39:26;;;;;;;4.85;1.30;;;25.00;71.40;;;;;;5088895;28;20544;-66
2023/07/01 11:41:54;;;;;;;3.95;1.42;;;25.00;71.40;;;;;;5081501;28;20204;-67
2023/07/01 11:44:22;;;;;;;1.30;1.20;;;25.10;71.00;;;;;;5089224;28;20667;-68
2023/07/01 11:46:50;;;;;;;1.33;1.10;;;25.10;71.00;;;;;;5066653;28;20200;-68
2023/07/01 11:49:18;;;;;;;1.48;0.90;;;25.20;70.90;;;;;;5082129;28;20283;-67
2023/07/01 11:51:48;;;;;;;1.23;1.00;;;25.20;70.80;;;;;;5090051;28;20188;-67
2023/07/01 11:54:17;;;;;;;1.38;1.05;;;25.30;70.70;;;;;;5083795;28;20200;-68
2023/07/01 11:56:45;;;;;;;1.52;1.42;;;25.30;70.80;;;;;;5088716;28;20279;-68
2023/07/01 11:59:28;;;;;;;1.38;1.20;;;25.40;70.90;;;;;;5086850;28;20220;-68
2023/07/01 12:01:55;;;;;;;1.10;1.00;;;25.40;70.90;;;;;;5087510;28;20180;-68
2023/07/01 12:04:23;;;;;;;1.70;1.08;;;25.30;70.40;;;;;;5091540;28;20216;-68
2023/07/01 12:07:06;;;;;;;1.30;1.20;;;25.20;70.20;;;;;;5092696;28;20205;-68
2023/07/01 12:09:33;;;;;;;1.10;1.10;;;25.20;70.00;;;;;;5090987;28;20311;-68
2023/07/01 12:12:00;;;;;;;1.45;1.35;;;25.20;70.20;;;;;;5092304;28;20242;-68
2023/07/01 12:14:29;;;;;;;1.92;1.52;;;25.20;70.60;;;;;;5074127;28;20282;-67
2023/07/01 12:16:56;;;;;;;1.40;1.30;;;25.20;70.80;;;;;;5092403;28;20204;-67
2023/07/01 12:19:25;;;;;;;1.60;1.50;;;25.30;70.70;;;;;;5074431;28;20208;-67
2023/07/01 12:21:57;;;;;;;1.98;1.70;;;25.40;69.50;;;;;;5092282;28;20184;-67
2023/07/01 12:24:25;;;;;;;1.27;1.20;;;25.40;68.80;;;;;;5091017;28;20345;-68
2023/07/01 12:26:54;;;;;;;2.47;1.40;;;25.40;69.10;;;;;;5092326;28;20722;-68
2023/07/01 12:29:22;;;;;;;1.77;1.45;;;25.50;70.10;;;;;;5089751;28;20219;-68
2023/07/01 12:31:49;;;;;;;1.58;1.48;;;25.50;70.30;;;;;;5091065;28;20227;-68
2023/07/01 12:34:16;;;;;;;3.67;1.63;;;25.50;69.50;;;;;;5072405;28;20266;-68
2023/07/01 12:36:44;;;;;;;1.67;1.58;;;25.50;68.60;;;;;;5087936;28;20242;-68
2023/07/01 12:39:14;;;;;;;4.22;1.50;;;25.60;68.70;;;;;;5091212;28;20235;-68
2023/07/01 12:41:42;;;;;;;1.40;1.30;;;25.60;68.80;;;;;;5091627;28;20184;-69
2023/07/01 12:44:10;;;;;;;1.63;1.50;;;25.60;68.30;;;;;;5072462;28;20203;-68
2023/07/01 12:46:38;;;;;;;1.52;1.42;;;25.70;67.80;;;;;;5091350;28;20668;-68
2023/07/01 12:49:07;;;;;;;1.85;1.55;;;25.70;67.80;;;;;;5090640;28;20258;-68
2023/07/01 12:51:37;;;;;;;1.65;1.55;;;25.80;68.00;;;;;;5086396;28;20188;-67
2023/07/01 12:54:04;;;;;;;4.97;1.88;;;25.80;67.90;;;;;;5090323;28;20567;-68
2023/07/01 12:56:33;;;;;;;1.73;1.63;;;25.90;67.20;;;;;;5090814;28;20200;-67